sensor_id;sensor_type;location;lat;lon;timestamp;P1;durP1;ratioP1;P2;durP2;ratioP2
14778;SDS011;7481;53.750;10.570;2024-02-16T00:03:36;12.57;;;9.10;;
14778;SDS011;7481;53.750;10.570;2024-02-16T00:08:03;10.80;;;7.80;;
14778;SDS011;7481;53.750;10.570;2024-02-16T00:12:29;11.00;;;7.77;;
14778;SDS011;7481;53.750;10.570;2024-02-16T00:17:05;10.83;;;7.60;;
14778;SDS011;7481;53.750;10.570;2024-02-16T00:21:28;10.53;;;7.20;;
14778;SDS011;7481;53.750;10.570;2024-02-16T00:26:10;10.83;;;6.57;;
14778;SDS011;7481;53.750;10.570;2024-02-16T00:30:36;8.40;;;6.93;;
14778;SDS011;7481;53.750;10.570;2024-02-16T00:35:06;7.40;;;6.33;;
14778;SDS011;7481;53.750;10.570;2024-02-16T00:39:42;8.63;;;6.47;;
14778;SDS011;7481;53.750;10.570;2024-02-16T00:44:22;12.33;;;6.83;;
14778;SDS011;7481;53.750;10.570;2024-02-16T00:48:51;12.47;;;6.63;;
14778;SDS011;7481;53.750;10.570;2024-02-16T00:53:24;10.03;;;6.60;;
14778;SDS011;7481;53.750;10.570;2024-02-16T00:57:50;9.47;;;6.20;;
14778;SDS011;7481;53.750;10.570;2024-02-16T01:02:27;9.07;;;5.57;;
14778;SDS011;7481;53.750;10.570;2024-02-16T01:06:54;8.57;;;5.97;;
14778;SDS011;7481;53.750;10.570;2024-02-16T01:11:23;9.70;;;6.10;;
14778;SDS011;7481;53.750;10.570;2024-02-16T01:15:57;7.07;;;6.37;;
14778;SDS011;7481;53.750;10.570;2024-02-16T01:20:37;10.40;;;6.57;;
14778;SDS011;7481;53.750;10.570;2024-02-16T01:25:09;11.93;;;6.07;;
14778;SDS011;7481;53.750;10.570;2024-02-16T01:29:39;11.53;;;6.40;;
14778;SDS011;7481;53.750;10.570;2024-02-16T01:34:13;6.50;;;5.63;;
14778;SDS011;7481;53.750;10.570;2024-02-16T01:38:44;6.63;;;5.70;;
14778;SDS011;7481;53.750;10.570;2024-02-16T01:43:11;9.00;;;5.33;;
14778;SDS011;7481;53.750;10.570;2024-02-16T01:47:44;6.57;;;5.53;;
14778;SDS011;7481;53.750;10.570;2024-02-16T01:52:09;9.10;;;5.33;;
14778;SDS011;7481;53.750;10.570;2024-02-16T01:56:41;7.83;;;5.30;;
14778;SDS011;7481;53.750;10.570;2024-02-16T02:01:17;7.57;;;5.30;;
14778;SDS011;7481;53.750;10.570;2024-02-16T02:05:53;7.53;;;4.90;;
14778;SDS011;7481;53.750;10.570;2024-02-16T02:10:30;8.63;;;5.43;;
14778;SDS011;7481;53.750;10.570;2024-02-16T02:14:57;6.67;;;4.60;;
14778;SDS011;7481;53.750;10.570;2024-02-16T02:19:27;10.70;;;5.70;;
14778;SDS011;7481;53.750;10.570;2024-02-16T02:23:56;9.00;;;5.20;;
14778;SDS011;7481;53.750;10.570;2024-02-16T02:28:24;8.90;;;5.43;;
14778;SDS011;7481;53.750;10.570;2024-02-16T02:33:00;7.30;;;5.00;;
14778;SDS011;7481;53.750;10.570;2024-02-16T02:37:26;6.70;;;4.80;;
14778;SDS011;7481;53.750;10.570;2024-02-16T02:41:52;8.03;;;5.30;;
14778;SDS011;7481;53.750;10.570;2024-02-16T02:46:22;6.20;;;5.07;;
14778;SDS011;7481;53.750;10.570;2024-02-16T02:50:54;7.90;;;5.63;;
14778;SDS011;7481;53.750;10.570;2024-02-16T02:55:38;8.20;;;5.40;;
14778;SDS011;7481;53.750;10.570;2024-02-16T03:00:31;7.30;;;5.27;;
14778;SDS011;7481;53.750;10.570;2024-02-16T03:05:01;7.63;;;4.97;;
14778;SDS011;7481;53.750;10.570;2024-02-16T03:09:32;5.97;;;4.70;;
14778;SDS011;7481;53.750;10.570;2024-02-16T03:14:04;7.30;;;4.90;;
14778;SDS011;7481;53.750;10.570;2024-02-16T03:18:40;5.87;;;4.73;;
14778;SDS011;7481;53.750;10.570;2024-02-16T03:23:11;8.07;;;5.07;;
14778;SDS011;7481;53.750;10.570;2024-02-16T03:27:34;11.77;;;5.03;;
14778;SDS011;7481;53.750;10.570;2024-02-16T03:32:07;6.27;;;5.00;;
14778;SDS011;7481;53.750;10.570;2024-02-16T03:36:38;6.17;;;5.10;;
14778;SDS011;7481;53.750;10.570;2024-02-16T03:41:07;8.73;;;5.60;;
14778;SDS011;7481;53.750;10.570;2024-02-16T03:45:34;8.00;;;4.30;;
14778;SDS011;7481;53.750;10.570;2024-02-16T03:50:08;7.83;;;5.37;;
14778;SDS011;7481;53.750;10.570;2024-02-16T03:54:42;8.57;;;4.90;;
14778;SDS011;7481;53.750;10.570;2024-02-16T03:59:17;8.57;;;5.20;;
14778;SDS011;7481;53.750;10.570;2024-02-16T04:04:00;8.13;;;4.77;;
14778;SDS011;7481;53.750;10.570;2024-02-16T04:08:38;7.80;;;4.70;;
14778;SDS011;7481;53.750;10.570;2024-02-16T04:13:06;8.13;;;5.27;;
14778;SDS011;7481;53.750;10.570;2024-02-16T04:17:37;7.70;;;5.23;;
14778;SDS011;7481;53.750;10.570;2024-02-16T04:22:10;7.30;;;4.77;;
14778;SDS011;7481;53.750;10.570;2024-02-16T04:26:39;8.20;;;4.80;;
14778;SDS011;7481;53.750;10.570;2024-02-16T04:31:13;5.37;;;4.80;;
14778;SDS011;7481;53.750;10.570;2024-02-16T04:35:54;6.27;;;4.73;;
14778;SDS011;7481;53.750;10.570;2024-02-16T04:40:22;6.73;;;4.67;;
14778;SDS011;7481;53.750;10.570;2024-02-16T04:44:57;6.67;;;4.83;;
14778;SDS011;7481;53.750;10.570;2024-02-16T04:49:28;9.70;;;5.10;;
14778;SDS011;7481;53.750;10.570;2024-02-16T04:53:55;5.27;;;4.77;;
14778;SDS011;7481;53.750;10.570;2024-02-16T04:58:41;5.30;;;4.70;;
14778;SDS011;7481;53.750;10.570;2024-02-16T05:03:10;10.13;;;5.33;;
14778;SDS011;7481;53.750;10.570;2024-02-16T05:07:37;9.63;;;6.03;;
14778;SDS011;7481;53.750;10.570;2024-02-16T05:12:10;5.07;;;4.57;;
14778;SDS011;7481;53.750;10.570;2024-02-16T05:16:45;6.90;;;4.90;;
14778;SDS011;7481;53.750;10.570;2024-02-16T05:21:15;8.47;;;4.73;;
14778;SDS011;7481;53.750;10.570;2024-02-16T05:30:38;7.57;;;5.17;;
14778;SDS011;7481;53.750;10.570;2024-02-16T05:35:10;5.90;;;4.60;;
14778;SDS011;7481;53.750;10.570;2024-02-16T05:39:46;5.13;;;4.33;;
14778;SDS011;7481;53.750;10.570;2024-02-16T05:44:22;5.90;;;4.40;;
14778;SDS011;7481;53.750;10.570;2024-02-16T05:48:58;6.70;;;4.80;;
14778;SDS011;7481;53.750;10.570;2024-02-16T05:53:25;7.03;;;4.80;;
14778;SDS011;7481;53.750;10.570;2024-02-16T05:57:50;5.00;;;4.20;;
14778;SDS011;7481;53.750;10.570;2024-02-16T06:02:41;5.87;;;4.37;;
14778;SDS011;7481;53.750;10.570;2024-02-16T06:07:12;5.53;;;4.70;;
14778;SDS011;7481;53.750;10.570;2024-02-16T06:11:42;7.03;;;4.40;;
14778;SDS011;7481;53.750;10.570;2024-02-16T06:16:25;6.90;;;4.80;;
14778;SDS011;7481;53.750;10.570;2024-02-16T06:20:48;6.60;;;4.17;;
14778;SDS011;7481;53.750;10.570;2024-02-16T06:25:17;8.00;;;4.50;;
14778;SDS011;7481;53.750;10.570;2024-02-16T06:29:46;5.70;;;3.97;;
14778;SDS011;7481;53.750;10.570;2024-02-16T06:34:11;6.73;;;4.43;;
14778;SDS011;7481;53.750;10.570;2024-02-16T06:38:39;8.73;;;4.37;;
14778;SDS011;7481;53.750;10.570;2024-02-16T06:43:06;6.10;;;4.73;;
14778;SDS011;7481;53.750;10.570;2024-02-16T06:47:33;6.90;;;4.10;;
14778;SDS011;7481;53.750;10.570;2024-02-16T06:51:58;5.33;;;3.73;;
14778;SDS011;7481;53.750;10.570;2024-02-16T06:56:21;5.50;;;4.37;;
14778;SDS011;7481;53.750;10.570;2024-02-16T07:00:45;5.33;;;4.27;;
14778;SDS011;7481;53.750;10.570;2024-02-16T07:05:11;6.73;;;4.10;;
14778;SDS011;7481;53.750;10.570;2024-02-16T07:09:37;6.50;;;4.30;;
14778;SDS011;7481;53.750;10.570;2024-02-16T07:14:06;6.57;;;3.90;;
14778;SDS011;7481;53.750;10.570;2024-02-16T07:18:32;6.07;;;4.55;;
14778;SDS011;7481;53.750;10.570;2024-02-16T07:22:58;6.87;;;4.53;;
14778;SDS011;7481;53.750;10.570;2024-02-16T07:27:26;6.37;;;4.20;;
14778;SDS011;7481;53.750;10.570;2024-02-16T07:31:58;4.87;;;3.87;;
14778;SDS011;7481;53.750;10.570;2024-02-16T07:36:28;5.57;;;3.70;;
14778;SDS011;7481;53.750;10.570;2024-02-16T07:40:53;5.23;;;3.50;;
14778;SDS011;7481;53.750;10.570;2024-02-16T07:45:18;6.00;;;3.70;;
14778;SDS011;7481;53.750;10.570;2024-02-16T07:49:44;5.10;;;3.43;;
14778;SDS011;7481;53.750;10.570;2024-02-16T07:54:08;4.47;;;3.50;;
14778;SDS011;7481;53.750;10.570;2024-02-16T07:58:33;6.70;;;3.40;;
14778;SDS011;7481;53.750;10.570;2024-02-16T08:03:01;5.00;;;3.33;;
14778;SDS011;7481;53.750;10.570;2024-02-16T08:07:26;6.53;;;3.83;;
14778;SDS011;7481;53.750;10.570;2024-02-16T08:11:53;7.43;;;3.27;;
14778;SDS011;7481;53.750;10.570;2024-02-16T08:16:18;7.83;;;3.37;;
14778;SDS011;7481;53.750;10.570;2024-02-16T08:20:47;5.27;;;3.30;;
14778;SDS011;7481;53.750;10.570;2024-02-16T08:25:16;4.57;;;3.27;;
14778;SDS011;7481;53.750;10.570;2024-02-16T08:29:39;3.50;;;2.63;;
14778;SDS011;7481;53.750;10.570;2024-02-16T08:34:05;3.40;;;2.73;;
14778;SDS011;7481;53.750;10.570;2024-02-16T08:43:11;45.27;;;21.63;;
14778;SDS011;7481;53.750;10.570;2024-02-16T08:47:36;5.30;;;3.30;;
14778;SDS011;7481;53.750;10.570;2024-02-16T08:52:03;5.13;;;2.40;;
14778;SDS011;7481;53.750;10.570;2024-02-16T08:56:30;5.07;;;2.40;;
14778;SDS011;7481;53.750;10.570;2024-02-16T09:01:00;5.97;;;2.77;;
14778;SDS011;7481;53.750;10.570;2024-02-16T09:05:27;4.70;;;2.50;;
14778;SDS011;7481;53.750;10.570;2024-02-16T09:09:54;4.17;;;2.43;;
14778;SDS011;7481;53.750;10.570;2024-02-16T09:14:19;7.20;;;2.80;;
14778;SDS011;7481;53.750;10.570;2024-02-16T09:18:46;5.00;;;2.30;;
14778;SDS011;7481;53.750;10.570;2024-02-16T09:23:14;4.73;;;2.30;;
14778;SDS011;7481;53.750;10.570;2024-02-16T09:27:42;4.70;;;2.17;;
14778;SDS011;7481;53.750;10.570;2024-02-16T09:32:08;3.97;;;2.20;;
14778;SDS011;7481;53.750;10.570;2024-02-16T09:36:35;3.83;;;2.07;;
14778;SDS011;7481;53.750;10.570;2024-02-16T09:41:02;3.60;;;2.30;;
14778;SDS011;7481;53.750;10.570;2024-02-16T09:45:27;3.27;;;2.17;;
14778;SDS011;7481;53.750;10.570;2024-02-16T09:49:51;4.43;;;2.47;;
14778;SDS011;7481;53.750;10.570;2024-02-16T09:54:17;4.63;;;2.23;;
14778;SDS011;7481;53.750;10.570;2024-02-16T09:58:41;5.60;;;3.13;;
14778;SDS011;7481;53.750;10.570;2024-02-16T10:03:06;3.50;;;2.40;;
14778;SDS011;7481;53.750;10.570;2024-02-16T10:07:33;3.80;;;2.37;;
14778;SDS011;7481;53.750;10.570;2024-02-16T10:11:58;3.10;;;2.13;;
14778;SDS011;7481;53.750;10.570;2024-02-16T10:16:41;8.50;;;2.50;;
14778;SDS011;7481;53.750;10.570;2024-02-16T10:21:07;3.43;;;2.37;;
14778;SDS011;7481;53.750;10.570;2024-02-16T10:25:30;3.27;;;2.17;;
14778;SDS011;7481;53.750;10.570;2024-02-16T10:29:54;5.97;;;2.30;;
14778;SDS011;7481;53.750;10.570;2024-02-16T10:34:20;4.63;;;2.60;;
14778;SDS011;7481;53.750;10.570;2024-02-16T10:38:47;3.60;;;2.10;;
14778;SDS011;7481;53.750;10.570;2024-02-16T10:43:12;5.23;;;2.53;;
14778;SDS011;7481;53.750;10.570;2024-02-16T10:47:39;5.30;;;2.77;;
14778;SDS011;7481;53.750;10.570;2024-02-16T10:52:05;7.10;;;3.47;;
14778;SDS011;7481;53.750;10.570;2024-02-16T10:56:34;3.27;;;2.10;;
14778;SDS011;7481;53.750;10.570;2024-02-16T11:00:57;3.07;;;2.20;;
14778;SDS011;7481;53.750;10.570;2024-02-16T11:05:20;5.27;;;2.10;;
14778;SDS011;7481;53.750;10.570;2024-02-16T11:09:50;3.83;;;2.30;;
14778;SDS011;7481;53.750;10.570;2024-02-16T11:14:21;6.03;;;2.53;;
14778;SDS011;7481;53.750;10.570;2024-02-16T11:18:48;3.23;;;2.00;;
14778;SDS011;7481;53.750;10.570;2024-02-16T11:23:28;4.03;;;2.20;;
14778;SDS011;7481;53.750;10.570;2024-02-16T11:27:54;5.97;;;2.50;;
14778;SDS011;7481;53.750;10.570;2024-02-16T11:32:20;6.33;;;2.80;;
14778;SDS011;7481;53.750;10.570;2024-02-16T11:36:46;3.10;;;2.07;;
14778;SDS011;7481;53.750;10.570;2024-02-16T11:41:15;4.97;;;2.27;;
14778;SDS011;7481;53.750;10.570;2024-02-16T11:45:37;2.63;;;2.10;;
14778;SDS011;7481;53.750;10.570;2024-02-16T11:54:32;2.73;;;2.10;;
14778;SDS011;7481;53.750;10.570;2024-02-16T11:58:59;3.53;;;2.23;;
14778;SDS011;7481;53.750;10.570;2024-02-16T12:03:26;5.93;;;2.27;;
14778;SDS011;7481;53.750;10.570;2024-02-16T12:07:51;3.33;;;2.20;;
14778;SDS011;7481;53.750;10.570;2024-02-16T12:12:17;5.33;;;2.70;;
14778;SDS011;7481;53.750;10.570;2024-02-16T12:16:42;5.90;;;2.47;;
14778;SDS011;7481;53.750;10.570;2024-02-16T12:21:08;2.67;;;2.00;;
14778;SDS011;7481;53.750;10.570;2024-02-16T12:25:32;4.73;;;2.10;;
14778;SDS011;7481;53.750;10.570;2024-02-16T12:29:58;4.63;;;2.70;;
14778;SDS011;7481;53.750;10.570;2024-02-16T12:34:20;4.60;;;2.30;;
14778;SDS011;7481;53.750;10.570;2024-02-16T12:38:46;3.87;;;2.30;;
14778;SDS011;7481;53.750;10.570;2024-02-16T12:43:11;3.33;;;2.30;;
14778;SDS011;7481;53.750;10.570;2024-02-16T12:47:38;5.30;;;2.60;;
14778;SDS011;7481;53.750;10.570;2024-02-16T12:52:02;3.67;;;2.30;;
14778;SDS011;7481;53.750;10.570;2024-02-16T12:56:25;3.17;;;2.50;;
14778;SDS011;7481;53.750;10.570;2024-02-16T13:00:50;4.47;;;2.30;;
14778;SDS011;7481;53.750;10.570;2024-02-16T13:05:40;4.40;;;2.70;;
14778;SDS011;7481;53.750;10.570;2024-02-16T13:10:10;2.93;;;2.33;;
14778;SDS011;7481;53.750;10.570;2024-02-16T13:14:36;4.87;;;3.20;;
14778;SDS011;7481;53.750;10.570;2024-02-16T13:19:01;4.00;;;2.40;;
14778;SDS011;7481;53.750;10.570;2024-02-16T13:23:27;4.70;;;2.93;;
14778;SDS011;7481;53.750;10.570;2024-02-16T13:27:54;5.70;;;2.90;;
14778;SDS011;7481;53.750;10.570;2024-02-16T13:32:20;3.57;;;2.63;;
14778;SDS011;7481;53.750;10.570;2024-02-16T13:36:54;7.13;;;3.03;;
14778;SDS011;7481;53.750;10.570;2024-02-16T13:41:24;4.43;;;2.73;;
14778;SDS011;7481;53.750;10.570;2024-02-16T13:45:50;4.67;;;3.00;;
14778;SDS011;7481;53.750;10.570;2024-02-16T13:50:15;3.27;;;2.50;;
14778;SDS011;7481;53.750;10.570;2024-02-16T13:54:42;7.63;;;3.10;;
14778;SDS011;7481;53.750;10.570;2024-02-16T13:59:08;4.77;;;2.80;;
14778;SDS011;7481;53.750;10.570;2024-02-16T14:03:32;5.17;;;3.10;;
14778;SDS011;7481;53.750;10.570;2024-02-16T14:08:00;4.87;;;3.03;;
14778;SDS011;7481;53.750;10.570;2024-02-16T14:12:31;4.77;;;3.37;;
14778;SDS011;7481;53.750;10.570;2024-02-16T14:17:03;5.20;;;3.47;;
14778;SDS011;7481;53.750;10.570;2024-02-16T14:21:26;4.40;;;3.23;;
14778;SDS011;7481;53.750;10.570;2024-02-16T14:25:53;5.03;;;3.43;;
14778;SDS011;7481;53.750;10.570;2024-02-16T14:30:18;5.93;;;3.00;;
14778;SDS011;7481;53.750;10.570;2024-02-16T14:34:44;5.57;;;3.57;;
14778;SDS011;7481;53.750;10.570;2024-02-16T14:39:08;6.27;;;3.97;;
14778;SDS011;7481;53.750;10.570;2024-02-16T14:43:33;6.60;;;3.90;;
14778;SDS011;7481;53.750;10.570;2024-02-16T14:48:04;9.73;;;4.03;;
14778;SDS011;7481;53.750;10.570;2024-02-16T14:52:31;6.90;;;4.37;;
14778;SDS011;7481;53.750;10.570;2024-02-16T14:57:01;6.37;;;4.00;;
14778;SDS011;7481;53.750;10.570;2024-02-16T15:01:27;6.80;;;4.37;;
14778;SDS011;7481;53.750;10.570;2024-02-16T15:06:03;6.27;;;4.27;;
14778;SDS011;7481;53.750;10.570;2024-02-16T15:10:35;6.60;;;4.23;;
14778;SDS011;7481;53.750;10.570;2024-02-16T15:15:00;5.70;;;4.33;;
14778;SDS011;7481;53.750;10.570;2024-02-16T15:19:25;7.97;;;5.20;;
14778;SDS011;7481;53.750;10.570;2024-02-16T15:23:48;8.03;;;4.87;;
14778;SDS011;7481;53.750;10.570;2024-02-16T15:28:15;7.87;;;5.13;;
14778;SDS011;7481;53.750;10.570;2024-02-16T15:32:41;8.73;;;5.40;;
14778;SDS011;7481;53.750;10.570;2024-02-16T15:37:08;8.00;;;5.77;;
14778;SDS011;7481;53.750;10.570;2024-02-16T15:41:35;10.27;;;6.30;;
14778;SDS011;7481;53.750;10.570;2024-02-16T15:46:03;11.50;;;7.97;;
14778;SDS011;7481;53.750;10.570;2024-02-16T15:50:31;10.57;;;6.80;;
14778;SDS011;7481;53.750;10.570;2024-02-16T15:55:00;9.40;;;7.70;;
14778;SDS011;7481;53.750;10.570;2024-02-16T16:00:00;12.13;;;8.10;;
14778;SDS011;7481;53.750;10.570;2024-02-16T16:04:17;9.77;;;7.90;;
14778;SDS011;7481;53.750;10.570;2024-02-16T16:08:55;9.77;;;7.43;;
14778;SDS011;7481;53.750;10.570;2024-02-16T16:13:18;11.07;;;7.67;;
14778;SDS011;7481;53.750;10.570;2024-02-16T16:17:47;10.87;;;8.30;;
14778;SDS011;7481;53.750;10.570;2024-02-16T16:22:18;9.50;;;7.70;;
14778;SDS011;7481;53.750;10.570;2024-02-16T16:26:45;10.83;;;8.70;;
14778;SDS011;7481;53.750;10.570;2024-02-16T16:31:16;9.93;;;7.50;;
14778;SDS011;7481;53.750;10.570;2024-02-16T16:35:49;8.67;;;7.00;;
14778;SDS011;7481;53.750;10.570;2024-02-16T16:40:13;7.70;;;6.00;;
14778;SDS011;7481;53.750;10.570;2024-02-16T16:44:41;9.23;;;5.83;;
14778;SDS011;7481;53.750;10.570;2024-02-16T16:49:09;6.73;;;3.83;;
14778;SDS011;7481;53.750;10.570;2024-02-16T16:53:37;3.30;;;2.90;;
14778;SDS011;7481;53.750;10.570;2024-02-16T16:58:03;4.23;;;3.70;;
14778;SDS011;7481;53.750;10.570;2024-02-16T17:02:28;3.90;;;3.40;;
14778;SDS011;7481;53.750;10.570;2024-02-16T17:06:53;3.57;;;3.27;;
14778;SDS011;7481;53.750;10.570;2024-02-16T17:11:19;6.07;;;5.47;;
14778;SDS011;7481;53.750;10.570;2024-02-16T17:15:47;4.40;;;3.20;;
14778;SDS011;7481;53.750;10.570;2024-02-16T17:20:16;2.87;;;2.60;;
14778;SDS011;7481;53.750;10.570;2024-02-16T17:24:48;3.23;;;2.50;;
14778;SDS011;7481;53.750;10.570;2024-02-16T17:29:15;2.23;;;1.83;;
14778;SDS011;7481;53.750;10.570;2024-02-16T17:33:41;1.83;;;1.67;;
14778;SDS011;7481;53.750;10.570;2024-02-16T17:38:10;2.53;;;2.10;;
14778;SDS011;7481;53.750;10.570;2024-02-16T17:42:37;4.73;;;3.07;;
14778;SDS011;7481;53.750;10.570;2024-02-16T17:47:04;5.93;;;4.03;;
14778;SDS011;7481;53.750;10.570;2024-02-16T17:51:31;5.87;;;4.10;;
14778;SDS011;7481;53.750;10.570;2024-02-16T17:56:01;9.07;;;5.90;;
14778;SDS011;7481;53.750;10.570;2024-02-16T18:00:32;10.03;;;7.07;;
14778;SDS011;7481;53.750;10.570;2024-02-16T18:04:59;5.10;;;3.50;;
14778;SDS011;7481;53.750;10.570;2024-02-16T18:09:28;3.90;;;2.70;;
14778;SDS011;7481;53.750;10.570;2024-02-16T18:13:57;2.60;;;2.40;;
14778;SDS011;7481;53.750;10.570;2024-02-16T18:18:26;2.60;;;2.40;;
14778;SDS011;7481;53.750;10.570;2024-02-16T18:22:50;2.93;;;2.30;;
14778;SDS011;7481;53.750;10.570;2024-02-16T18:27:17;2.40;;;2.20;;
14778;SDS011;7481;53.750;10.570;2024-02-16T18:31:46;2.57;;;2.37;;
14778;SDS011;7481;53.750;10.570;2024-02-16T18:36:13;3.00;;;2.70;;
14778;SDS011;7481;53.750;10.570;2024-02-16T18:40:39;4.00;;;2.80;;
14778;SDS011;7481;53.750;10.570;2024-02-16T18:45:05;3.90;;;3.33;;
14778;SDS011;7481;53.750;10.570;2024-02-16T18:49:34;4.07;;;3.67;;
14778;SDS011;7481;53.750;10.570;2024-02-16T18:54:03;5.23;;;3.90;;
14778;SDS011;7481;53.750;10.570;2024-02-16T18:58:32;5.53;;;4.77;;
14778;SDS011;7481;53.750;10.570;2024-02-16T19:03:00;5.30;;;4.57;;
14778;SDS011;7481;53.750;10.570;2024-02-16T19:07:25;5.90;;;5.10;;
14778;SDS011;7481;53.750;10.570;2024-02-16T19:11:50;7.10;;;6.40;;
14778;SDS011;7481;53.750;10.570;2024-02-16T19:16:17;7.90;;;6.13;;
14778;SDS011;7481;53.750;10.570;2024-02-16T19:20:47;7.07;;;6.20;;
14778;SDS011;7481;53.750;10.570;2024-02-16T19:25:30;6.87;;;5.70;;
14778;SDS011;7481;53.750;10.570;2024-02-16T19:30:01;9.43;;;7.33;;
14778;SDS011;7481;53.750;10.570;2024-02-16T19:39:12;13.23;;;9.90;;
14778;SDS011;7481;53.750;10.570;2024-02-16T19:43:37;11.70;;;9.23;;
14778;SDS011;7481;53.750;10.570;2024-02-16T19:48:04;7.67;;;6.70;;
14778;SDS011;7481;53.750;10.570;2024-02-16T19:52:31;6.30;;;5.43;;
14778;SDS011;7481;53.750;10.570;2024-02-16T19:57:03;5.23;;;4.67;;
14778;SDS011;7481;53.750;10.570;2024-02-16T20:01:30;6.07;;;4.60;;
14778;SDS011;7481;53.750;10.570;2024-02-16T20:05:56;5.33;;;3.70;;
14778;SDS011;7481;53.750;10.570;2024-02-16T20:10:28;4.40;;;3.87;;
14778;SDS011;7481;53.750;10.570;2024-02-16T20:14:55;4.73;;;4.00;;
14778;SDS011;7481;53.750;10.570;2024-02-16T20:19:21;6.63;;;4.07;;
14778;SDS011;7481;53.750;10.570;2024-02-16T20:23:51;4.40;;;3.97;;
14778;SDS011;7481;53.750;10.570;2024-02-16T20:28:18;4.27;;;3.87;;
14778;SDS011;7481;53.750;10.570;2024-02-16T20:32:41;4.57;;;4.10;;
14778;SDS011;7481;53.750;10.570;2024-02-16T20:37:10;5.67;;;4.93;;
14778;SDS011;7481;53.750;10.570;2024-02-16T20:41:48;6.20;;;4.67;;
14778;SDS011;7481;53.750;10.570;2024-02-16T20:46:15;5.20;;;4.70;;
14778;SDS011;7481;53.750;10.570;2024-02-16T20:50:51;5.43;;;4.80;;
14778;SDS011;7481;53.750;10.570;2024-02-16T20:55:19;8.23;;;5.43;;
14778;SDS011;7481;53.750;10.570;2024-02-16T20:59:51;6.73;;;4.87;;
14778;SDS011;7481;53.750;10.570;2024-02-16T21:04:30;5.90;;;5.10;;
14778;SDS011;7481;53.750;10.570;2024-02-16T21:08:57;7.53;;;6.07;;
14778;SDS011;7481;53.750;10.570;2024-02-16T21:13:23;8.10;;;5.87;;
14778;SDS011;7481;53.750;10.570;2024-02-16T21:17:51;10.37;;;6.93;;
14778;SDS011;7481;53.750;10.570;2024-02-16T21:22:17;7.93;;;6.77;;
14778;SDS011;7481;53.750;10.570;2024-02-16T21:26:49;8.07;;;6.50;;
14778;SDS011;7481;53.750;10.570;2024-02-16T21:31:15;7.87;;;6.30;;
14778;SDS011;7481;53.750;10.570;2024-02-16T21:35:45;9.27;;;7.30;;
14778;SDS011;7481;53.750;10.570;2024-02-16T21:40:17;8.70;;;6.43;;
14778;SDS011;7481;53.750;10.570;2024-02-16T21:44:46;8.43;;;6.43;;
14778;SDS011;7481;53.750;10.570;2024-02-16T21:49:15;9.13;;;6.70;;
14778;SDS011;7481;53.750;10.570;2024-02-16T21:53:45;8.20;;;6.83;;
14778;SDS011;7481;53.750;10.570;2024-02-16T21:58:21;11.70;;;7.60;;
14778;SDS011;7481;53.750;10.570;2024-02-16T22:02:51;8.33;;;7.33;;
14778;SDS011;7481;53.750;10.570;2024-02-16T22:07:21;9.40;;;7.00;;
14778;SDS011;7481;53.750;10.570;2024-02-16T22:11:49;11.40;;;8.63;;
14778;SDS011;7481;53.750;10.570;2024-02-16T22:16:16;10.63;;;8.23;;
14778;SDS011;7481;53.750;10.570;2024-02-16T22:20:43;12.93;;;8.53;;
14778;SDS011;7481;53.750;10.570;2024-02-16T22:25:16;13.50;;;9.43;;
14778;SDS011;7481;53.750;10.570;2024-02-16T22:29:45;10.87;;;8.50;;
14778;SDS011;7481;53.750;10.570;2024-02-16T22:34:11;10.10;;;7.27;;
14778;SDS011;7481;53.750;10.570;2024-02-16T22:38:37;11.83;;;8.60;;
14778;SDS011;7481;53.750;10.570;2024-02-16T22:43:04;10.73;;;7.63;;
14778;SDS011;7481;53.750;10.570;2024-02-16T22:47:36;10.33;;;7.50;;
14778;SDS011;7481;53.750;10.570;2024-02-16T22:52:06;11.37;;;7.33;;
14778;SDS011;7481;53.750;10.570;2024-02-16T22:56:33;9.93;;;6.90;;
14778;SDS011;7481;53.750;10.570;2024-02-16T23:01:01;10.40;;;7.40;;
14778;SDS011;7481;53.750;10.570;2024-02-16T23:05:27;9.67;;;6.90;;
14778;SDS011;7481;53.750;10.570;2024-02-16T23:09:52;9.17;;;6.70;;
14778;SDS011;7481;53.750;10.570;2024-02-16T23:14:19;8.23;;;6.60;;
14778;SDS011;7481;53.750;10.570;2024-02-16T23:18:49;8.37;;;6.17;;
14778;SDS011;7481;53.750;10.570;2024-02-16T23:23:17;8.73;;;6.20;;
14778;SDS011;7481;53.750;10.570;2024-02-16T23:27:49;10.03;;;6.10;;
14778;SDS011;7481;53.750;10.570;2024-02-16T23:32:16;7.63;;;4.73;;
14778;SDS011;7481;53.750;10.570;2024-02-16T23:36:52;7.70;;;5.67;;
14778;SDS011;7481;53.750;10.570;2024-02-16T23:41:25;7.40;;;5.90;;
14778;SDS011;7481;53.750;10.570;2024-02-16T23:45:50;7.50;;;5.77;;
14778;SDS011;7481;53.750;10.570;2024-02-16T23:50:20;7.60;;;5.53;;
14778;SDS011;7481;53.750;10.570;2024-02-16T23:54:43;9.70;;;6.70;;
14778;SDS011;7481;53.750;10.570;2024-02-16T23:59:21;10.70;;;5.93;;
